createdAt,value
2022-12-23T00:01:53.602Z,92.47
2022-12-23T00:06:56.852Z,92.39
2022-12-23T00:12:18.502Z,92.35
2022-12-23T00:17:22.947Z,92.46
2022-12-23T00:22:46.817Z,92.54
2022-12-23T00:28:01.698Z,92.61
2022-12-23T00:33:05.732Z,92.72
2022-12-23T00:38:09.033Z,92.86
2022-12-23T00:43:12.156Z,92.74
2022-12-23T00:48:34.218Z,92.57
2022-12-23T00:53:37.502Z,92.42
2022-12-23T00:58:40.631Z,92.34
2022-12-23T01:04:02.361Z,92.15
2022-12-23T01:09:05.664Z,92.08
2022-12-23T01:14:09.561Z,92.03
2022-12-23T01:19:13.104Z,91.93
2022-12-23T01:24:16.231Z,91.89
2022-12-23T01:29:19.418Z,91.80
2022-12-23T01:34:22.436Z,91.71
2022-12-23T01:39:25.529Z,91.53
2022-12-23T01:44:56.521Z,91.43
2022-12-23T01:50:31.384Z,91.46
2022-12-23T01:56:00.665Z,91.40
2022-12-23T02:01:24.558Z,91.39
2022-12-23T02:07:01.567Z,91.40
2022-12-23T02:12:30.784Z,91.43
2022-12-23T02:18:04.626Z,91.31
2022-12-23T02:24:02.300Z,91.20
2022-12-23T02:29:52.606Z,91.02
2022-12-23T02:35:34.304Z,90.90
2022-12-23T02:40:49.298Z,90.96
2022-12-23T02:46:00.552Z,90.83
2022-12-23T02:51:07.077Z,90.66
2022-12-23T02:56:14.225Z,90.48
2022-12-23T03:01:19.838Z,90.56
2022-12-23T03:06:40.783Z,90.66
2022-12-23T03:12:09.020Z,90.69
2022-12-23T03:17:31.322Z,90.71
2022-12-23T03:23:03.926Z,90.73
2022-12-23T03:28:18.898Z,90.72
2022-12-23T03:33:39.925Z,90.72
2022-12-23T03:38:46.071Z,90.61
2022-12-23T03:44:02.436Z,90.75
2022-12-23T03:49:17.338Z,90.89
2022-12-23T03:54:31.637Z,90.89
2022-12-23T03:59:42.765Z,90.88
2022-12-23T04:05:00.937Z,90.84
2022-12-23T04:10:07.893Z,90.84
2022-12-23T04:15:13.411Z,90.96
2022-12-23T04:20:17.421Z,90.93
2022-12-23T04:25:21.027Z,90.83
2022-12-23T04:30:28.068Z,90.82
2022-12-23T04:35:36.689Z,90.97
2022-12-23T04:40:39.772Z,91.10
2022-12-23T04:45:42.977Z,91.10
2022-12-23T04:50:46.106Z,91.13
2022-12-23T04:55:52.478Z,91.11
2022-12-23T05:01:22.094Z,91.10
2022-12-23T05:06:25.310Z,91.08
2022-12-23T05:11:28.408Z,90.97
2022-12-23T05:16:31.896Z,90.96
2022-12-23T05:21:35.134Z,90.87
2022-12-23T05:26:38.245Z,90.81
2022-12-23T05:31:41.472Z,90.82
2022-12-23T05:36:44.487Z,90.94
2022-12-23T05:41:47.663Z,91.00
2022-12-23T05:46:50.905Z,90.99
2022-12-23T05:51:53.973Z,91.00
2022-12-23T05:56:57.081Z,90.99
2022-12-23T06:02:00.255Z,90.92
2022-12-23T06:07:03.814Z,90.67
2022-12-23T06:12:07.795Z,90.47
2022-12-23T06:17:10.847Z,90.33
2022-12-23T06:22:14.931Z,90.43
2022-12-23T06:27:19.098Z,90.46
2022-12-23T06:32:22.208Z,90.42
2022-12-23T06:37:25.414Z,90.43
2022-12-23T06:42:28.591Z,90.54
2022-12-23T06:47:32.063Z,90.59
2022-12-23T06:52:35.349Z,90.63
2022-12-23T06:57:38.450Z,90.74
2022-12-23T07:02:41.776Z,90.76
2022-12-23T07:07:45.107Z,90.86
2022-12-23T07:12:50.850Z,90.79
2022-12-23T07:17:55.504Z,90.68
2022-12-23T07:22:59.103Z,90.75
2022-12-23T07:28:02.117Z,90.81
2022-12-23T07:33:05.207Z,90.73
2022-12-23T07:38:09.899Z,90.64
2022-12-23T07:43:13.064Z,90.62
2022-12-23T07:48:16.167Z,90.53
2022-12-23T07:53:19.279Z,90.59
2022-12-23T07:58:22.589Z,90.64
2022-12-23T08:03:25.894Z,90.66
2022-12-23T08:08:29.617Z,90.71
2022-12-23T08:13:36.065Z,90.82
2022-12-23T08:18:41.802Z,90.86
2022-12-23T08:23:47.513Z,90.90
2022-12-23T08:28:53.746Z,90.70
2022-12-23T08:34:00.188Z,90.41
2022-12-23T08:39:10.481Z,90.48
2022-12-23T08:44:15.217Z,90.55
2022-12-23T08:49:18.394Z,90.67
2022-12-23T08:54:22.489Z,90.65
2022-12-23T08:59:25.894Z,90.57
2022-12-23T09:04:28.976Z,90.41
2022-12-23T09:09:32.114Z,90.43
2022-12-23T09:14:35.399Z,90.46
2022-12-23T09:19:38.432Z,90.39
2022-12-23T09:24:41.606Z,90.35
2022-12-23T09:29:44.738Z,90.16
2022-12-23T09:34:47.930Z,90.12
2022-12-23T09:39:51.127Z,90.02
2022-12-23T09:45:40.732Z,90.09
2022-12-23T09:50:45.730Z,90.10
2022-12-23T09:56:02.660Z,90.16
2022-12-23T10:01:45.316Z,90.17
2022-12-23T10:07:03.248Z,90.14
2022-12-23T10:12:27.209Z,90.29
2022-12-23T10:17:41.984Z,90.37
2022-12-23T10:22:47.417Z,90.32
2022-12-23T10:27:50.639Z,90.29
2022-12-23T10:33:23.374Z,90.11
2022-12-23T10:38:53.276Z,90.16
2022-12-23T10:44:23.105Z,90.25
2022-12-23T10:49:45.584Z,90.35
2022-12-23T10:54:49.525Z,90.32
2022-12-23T10:59:52.703Z,90.24
2022-12-23T11:04:55.915Z,90.21
2022-12-23T11:10:13.492Z,90.20
2022-12-23T11:15:39.567Z,90.28
2022-12-23T11:20:46.635Z,90.24
2022-12-23T11:25:59.744Z,90.33
2022-12-23T11:31:12.138Z,90.01
2022-12-23T11:36:24.963Z,89.94
2022-12-23T11:41:35.379Z,89.81
2022-12-23T11:46:38.716Z,89.85
2022-12-23T11:51:44.643Z,89.71
2022-12-23T11:56:53.853Z,89.56
2022-12-23T12:02:02.600Z,89.04
2022-12-23T12:07:12.312Z,88.92
2022-12-23T12:12:21.890Z,88.86
2022-12-23T12:17:38.384Z,88.74
2022-12-23T12:22:59.409Z,88.90
2022-12-23T12:28:13.882Z,88.84
2022-12-23T12:33:28.260Z,88.67
2022-12-23T12:38:33.737Z,88.67
2022-12-23T12:43:48.947Z,88.64
2022-12-23T12:48:57.932Z,88.65
2022-12-23T12:54:45.863Z,88.71
2022-12-23T13:00:05.222Z,88.76
2022-12-23T13:05:53.579Z,88.61
2022-12-23T13:11:09.771Z,88.47
2022-12-23T13:17:11.537Z,88.51
2022-12-23T13:22:33.586Z,88.57
2022-12-23T13:28:08.195Z,88.65
2022-12-23T13:33:28.559Z,88.81
2022-12-23T13:38:56.457Z,88.84
2022-12-23T13:44:06.721Z,88.86
2022-12-23T13:49:57.068Z,88.75
2022-12-23T13:55:38.975Z,88.83
2022-12-23T14:00:43.275Z,88.71
2022-12-23T14:05:51.047Z,88.74
2022-12-23T14:11:12.642Z,88.78
2022-12-23T14:16:47.388Z,88.76
2022-12-23T14:22:13.142Z,88.76
2022-12-23T14:27:40.631Z,88.61
2022-12-23T14:32:54.365Z,88.69
2022-12-23T14:38:16.026Z,88.83
2022-12-23T14:43:22.336Z,88.84
2022-12-23T14:48:34.907Z,88.85
2022-12-23T14:53:57.951Z,88.82
2022-12-23T14:59:04.057Z,88.80
2022-12-23T15:04:17.100Z,88.69
2022-12-23T15:09:26.813Z,88.61
2022-12-23T15:14:47.173Z,88.75
2022-12-23T15:19:51.726Z,88.80
2022-12-23T15:24:55.940Z,88.89
2022-12-23T15:30:00.197Z,88.93
2022-12-23T15:35:06.971Z,89.04
2022-12-23T15:40:42.030Z,89.14
2022-12-23T15:45:45.444Z,89.25
2022-12-23T15:50:51.507Z,89.50
2022-12-23T15:55:55.438Z,89.68
2022-12-23T16:01:01.040Z,89.95
2022-12-23T16:06:26.029Z,89.97
2022-12-23T16:11:38.579Z,89.93
2022-12-23T16:16:43.687Z,89.96
2022-12-23T16:21:46.910Z,89.96
2022-12-23T16:26:50.119Z,90.03
2022-12-23T16:32:01.448Z,89.99
2022-12-23T16:37:05.354Z,89.99
2022-12-23T16:42:08.654Z,89.76
2022-12-23T16:47:17.577Z,89.82
2022-12-23T16:52:24.474Z,89.94
2022-12-23T16:57:27.603Z,90.05
2022-12-23T17:02:34.633Z,90.04
2022-12-23T17:07:43.219Z,89.90
2022-12-23T17:12:50.761Z,89.87
2022-12-23T17:17:54.772Z,89.85
2022-12-23T17:23:00.338Z,89.85
2022-12-23T17:28:10.112Z,89.90
2022-12-23T17:33:19.467Z,89.98
2022-12-23T17:38:22.871Z,90.18
2022-12-23T17:43:26.995Z,90.42
2022-12-23T17:48:32.084Z,90.51
2022-12-23T17:53:35.511Z,90.45
2022-12-23T17:58:38.670Z,90.28
2022-12-23T18:03:41.802Z,90.22
2022-12-23T18:08:46.228Z,90.25
2022-12-23T18:13:52.859Z,90.19
2022-12-23T18:18:56.313Z,90.36
2022-12-23T18:24:00.444Z,90.49
2022-12-23T18:29:03.671Z,90.43
2022-12-23T18:34:06.863Z,90.41
2022-12-23T18:39:10.275Z,90.39
2022-12-23T18:44:21.261Z,90.28
2022-12-23T18:49:24.489Z,90.32
2022-12-23T18:54:28.316Z,90.33
2022-12-23T18:59:33.277Z,90.50
2022-12-23T19:04:36.359Z,90.54
2022-12-23T19:09:39.565Z,90.56
2022-12-23T19:14:42.770Z,90.51
2022-12-23T19:19:45.884Z,90.44
2022-12-23T19:25:04.510Z,90.35
2022-12-23T19:30:14.782Z,90.42
2022-12-23T19:35:18.072Z,90.43
2022-12-23T19:40:23.929Z,90.48
2022-12-23T19:45:27.322Z,90.46
2022-12-23T19:50:30.756Z,90.32
2022-12-23T19:55:34.147Z,90.17
2022-12-23T20:00:37.353Z,90.18
2022-12-23T20:05:40.873Z,90.14
2022-12-23T20:10:44.695Z,90.18
2022-12-23T20:15:47.893Z,90.26
2022-12-23T20:20:51.928Z,90.21
2022-12-23T20:25:55.842Z,90.22
2022-12-23T20:31:22.663Z,90.15
2022-12-23T20:36:31.278Z,90.04
2022-12-23T20:41:35.073Z,90.03
2022-12-23T20:46:38.317Z,89.99
2022-12-23T20:51:41.598Z,90.07
2022-12-23T20:56:44.695Z,90.14
2022-12-23T21:01:47.961Z,90.11
2022-12-23T21:06:51.320Z,90.06
2022-12-23T21:11:54.636Z,90.14
2022-12-23T21:16:57.763Z,89.48
2022-12-23T21:22:01.630Z,88.74
2022-12-23T21:27:04.768Z,88.17
2022-12-23T21:32:07.981Z,87.97
2022-12-23T21:37:11.087Z,87.86
2022-12-23T21:42:14.098Z,87.75
2022-12-23T21:47:17.518Z,87.89
2022-12-23T21:52:20.809Z,88.08
2022-12-23T21:57:24.221Z,88.24
2022-12-23T22:02:27.463Z,88.09
2022-12-23T22:07:30.673Z,87.79
2022-12-23T22:12:33.850Z,87.71
2022-12-23T22:17:37.083Z,87.89
2022-12-23T22:22:40.169Z,87.96
2022-12-23T22:27:45.332Z,87.93
2022-12-23T22:32:48.521Z,87.88
2022-12-23T22:37:51.649Z,87.89
2022-12-23T22:42:54.835Z,87.89
2022-12-23T22:47:57.946Z,87.84
2022-12-23T22:53:01.259Z,87.68
2022-12-23T22:58:04.365Z,87.49
2022-12-23T23:03:07.570Z,87.36
2022-12-23T23:08:12.622Z,87.32
2022-12-23T23:13:15.766Z,87.36
2022-12-23T23:18:19.258Z,87.61
2022-12-23T23:23:22.474Z,87.75
2022-12-23T23:28:25.666Z,87.68
2022-12-23T23:33:28.781Z,87.61
2022-12-23T23:38:31.978Z,87.50
2022-12-23T23:43:35.291Z,87.50
2022-12-23T23:48:39.624Z,87.41
2022-12-23T23:53:42.735Z,87.50
2022-12-23T23:58:45.947Z,87.50
